Penn, Pennsylvania
Current Conditions -  °F | °C
As of 6:50 AM on Monday 26 Jan 2015 (Local Time) from KLBE Reporting Station
Overcast Overcast  
Wind Chill: 23°   Ceiling: 3400
Heat Index: 32°   Visibility: 8mi
Dew Point: 28°   Wind: 12mph
Humidity: 87%   Direction: 90°E
Pressure: 29.69"   Gusts: NA
Location:  40.33°N, 79.64°W
Report Text: KLBE 261150Z 09010KT 8SM OVC034 00/M02 A2969
Loading
Personal Weather Stations






























Interactive Weather Map New forecast layout! Learn more

10-Day Weather Forecast

Advertisements
Track Severe Weather on mobile